sensor_id;sensor_type;location;lat;lon;timestamp;pressure;altitude;pressure_sealevel;temperature;humidity
59951;BME280;45812;53.540;9.774;2023-03-04T00:01:16;102095.53;;;5.22;100.00
59951;BME280;45812;53.540;9.774;2023-03-04T00:03:41;102086.91;;;5.33;100.00
59951;BME280;45812;53.540;9.774;2023-03-04T00:06:07;102088.91;;;5.29;100.00
59951;BME280;45812;53.540;9.774;2023-03-04T00:08:32;102094.53;;;5.37;100.00
59951;BME280;45812;53.540;9.774;2023-03-04T00:10:58;102094.00;;;5.32;100.00
59951;BME280;45812;53.540;9.774;2023-03-04T00:13:23;102093.25;;;5.30;100.00
59951;BME280;45812;53.540;9.774;2023-03-04T00:15:49;102090.38;;;5.47;100.00
59951;BME280;45812;53.540;9.774;2023-03-04T00:18:14;102085.78;;;5.37;100.00
59951;BME280;45812;53.540;9.774;2023-03-04T00:20:40;102085.78;;;5.37;100.00
59951;BME280;45812;53.540;9.774;2023-03-04T00:23:05;102097.44;;;5.47;100.00
59951;BME280;45812;53.540;9.774;2023-03-04T00:25:31;102103.88;;;5.43;100.00
59951;BME280;45812;53.540;9.774;2023-03-04T00:27:57;102090.19;;;5.51;100.00
59951;BME280;45812;53.540;9.774;2023-03-04T00:30:23;102090.34;;;5.62;100.00
59951;BME280;45812;53.540;9.774;2023-03-04T00:32:48;102085.34;;;5.57;100.00
59951;BME280;45812;53.540;9.774;2023-03-04T00:35:14;102085.75;;;5.51;100.00
59951;BME280;45812;53.540;9.774;2023-03-04T00:37:40;102086.16;;;5.45;100.00
59951;BME280;45812;53.540;9.774;2023-03-04T00:40:06;102078.13;;;5.46;100.00
59951;BME280;45812;53.540;9.774;2023-03-04T00:42:31;102067.16;;;5.53;100.00
59951;BME280;45812;53.540;9.774;2023-03-04T00:44:56;102063.69;;;5.38;100.00
59951;BME280;45812;53.540;9.774;2023-03-04T00:47:22;102068.34;;;5.34;100.00
59951;BME280;45812;53.540;9.774;2023-03-04T00:49:47;102074.47;;;5.35;100.00
59951;BME280;45812;53.540;9.774;2023-03-04T00:52:12;102078.31;;;5.43;100.00
59951;BME280;45812;53.540;9.774;2023-03-04T00:54:37;102063.44;;;5.42;100.00
59951;BME280;45812;53.540;9.774;2023-03-04T00:57:03;102067.00;;;5.41;100.00
59951;BME280;45812;53.540;9.774;2023-03-04T00:59:28;102060.59;;;5.45;100.00
59951;BME280;45812;53.540;9.774;2023-03-04T01:01:53;102051.50;;;5.50;100.00
59951;BME280;45812;53.540;9.774;2023-03-04T01:04:18;102049.66;;;5.37;100.00
59951;BME280;45812;53.540;9.774;2023-03-04T01:06:44;102059.47;;;5.35;100.00
59951;BME280;45812;53.540;9.774;2023-03-04T01:09:09;102051.44;;;5.37;100.00
59951;BME280;45812;53.540;9.774;2023-03-04T01:11:34;102044.94;;;5.42;100.00
59951;BME280;45812;53.540;9.774;2023-03-04T01:13:59;102051.31;;;5.53;100.00
59951;BME280;45812;53.540;9.774;2023-03-04T01:16:25;102055.09;;;5.48;100.00
59951;BME280;45812;53.540;9.774;2023-03-04T01:18:51;102041.72;;;5.37;100.00
59951;BME280;45812;53.540;9.774;2023-03-04T01:21:16;102035.38;;;5.27;100.00
59951;BME280;45812;53.540;9.774;2023-03-04T01:23:41;102026.28;;;5.31;100.00
59951;BME280;45812;53.540;9.774;2023-03-04T01:26:06;102031.78;;;5.28;100.00
59951;BME280;45812;53.540;9.774;2023-03-04T01:28:32;102017.22;;;5.35;100.00
59951;BME280;45812;53.540;9.774;2023-03-04T01:31:00;102022.41;;;5.37;100.00
59951;BME280;45812;53.540;9.774;2023-03-04T01:33:26;102032.53;;;5.30;100.00
59951;BME280;45812;53.540;9.774;2023-03-04T01:35:51;102019.53;;;5.27;100.00
59951;BME280;45812;53.540;9.774;2023-03-04T01:38:16;102016.69;;;5.30;100.00
59951;BME280;45812;53.540;9.774;2023-03-04T01:40:41;101999.88;;;5.31;100.00
59951;BME280;45812;53.540;9.774;2023-03-04T01:43:13;101997.31;;;5.44;100.00
59951;BME280;45812;53.540;9.774;2023-03-04T01:45:40;101992.50;;;5.36;100.00
59951;BME280;45812;53.540;9.774;2023-03-04T01:48:08;101983.47;;;5.40;100.00
59951;BME280;45812;53.540;9.774;2023-03-04T01:50:34;101991.56;;;5.37;100.00
59951;BME280;45812;53.540;9.774;2023-03-04T01:53:01;101986.50;;;5.34;100.00
59951;BME280;45812;53.540;9.774;2023-03-04T01:55:28;101983.53;;;5.39;100.00
59951;BME280;45812;53.540;9.774;2023-03-04T01:57:54;101980.53;;;5.45;100.00
59951;BME280;45812;53.540;9.774;2023-03-04T02:02:51;101982.63;;;5.40;100.00
59951;BME280;45812;53.540;9.774;2023-03-04T02:05:18;101985.44;;;5.37;100.00
59951;BME280;45812;53.540;9.774;2023-03-04T02:07:43;101978.38;;;5.37;100.00
59951;BME280;45812;53.540;9.774;2023-03-04T02:10:10;101980.63;;;5.43;100.00
59951;BME280;45812;53.540;9.774;2023-03-04T02:12:35;101980.31;;;5.48;100.00
59951;BME280;45812;53.540;9.774;2023-03-04T02:15:01;101980.00;;;5.53;100.00
59951;BME280;45812;53.540;9.774;2023-03-04T02:17:27;101974.50;;;5.43;100.00
59951;BME280;45812;53.540;9.774;2023-03-04T02:20:02;101969.97;;;5.45;100.00
59951;BME280;45812;53.540;9.774;2023-03-04T02:22:31;101965.56;;;5.58;100.00
59951;BME280;45812;53.540;9.774;2023-03-04T02:25:06;101965.16;;;5.64;100.00
59951;BME280;45812;53.540;9.774;2023-03-04T02:27:33;101977.81;;;5.59;100.00
59951;BME280;45812;53.540;9.774;2023-03-04T02:29:58;101968.84;;;5.62;100.00
59951;BME280;45812;53.540;9.774;2023-03-04T02:32:24;101961.75;;;5.62;100.00
59951;BME280;45812;53.540;9.774;2023-03-04T02:34:50;101961.34;;;5.68;100.00
59951;BME280;45812;53.540;9.774;2023-03-04T02:37:17;101954.91;;;5.72;100.00
59951;BME280;45812;53.540;9.774;2023-03-04T02:39:45;101948.00;;;5.57;100.00
59951;BME280;45812;53.540;9.774;2023-03-04T02:42:11;101943.03;;;5.53;100.00
59951;BME280;45812;53.540;9.774;2023-03-04T02:44:39;101939.22;;;5.57;100.00
59951;BME280;45812;53.540;9.774;2023-03-04T02:47:07;101944.34;;;5.60;100.00
59951;BME280;45812;53.540;9.774;2023-03-04T02:49:35;101933.22;;;5.55;100.00
59951;BME280;45812;53.540;9.774;2023-03-04T02:52:04;101939.78;;;5.62;100.00
59951;BME280;45812;53.540;9.774;2023-03-04T02:54:30;101930.03;;;5.50;100.00
59951;BME280;45812;53.540;9.774;2023-03-04T02:56:59;101927.91;;;5.55;100.00
59951;BME280;45812;53.540;9.774;2023-03-04T02:59:25;101932.03;;;5.46;100.00
59951;BME280;45812;53.540;9.774;2023-03-04T03:01:50;101926.88;;;5.44;100.00
59951;BME280;45812;53.540;9.774;2023-03-04T03:04:17;101932.25;;;5.43;100.00
59951;BME280;45812;53.540;9.774;2023-03-04T03:06:42;101926.03;;;5.44;100.00
59951;BME280;45812;53.540;9.774;2023-03-04T03:09:08;101935.09;;;5.40;100.00
59951;BME280;45812;53.540;9.774;2023-03-04T03:11:33;101923.69;;;5.39;100.00
59951;BME280;45812;53.540;9.774;2023-03-04T03:13:59;101921.97;;;5.38;100.00
59951;BME280;45812;53.540;9.774;2023-03-04T03:16:24;101919.94;;;5.29;100.00
59951;BME280;45812;53.540;9.774;2023-03-04T03:18:50;101921.84;;;5.27;100.00
59951;BME280;45812;53.540;9.774;2023-03-04T03:21:15;101914.97;;;5.25;100.00
59951;BME280;45812;53.540;9.774;2023-03-04T03:23:40;101909.06;;;5.21;100.00
59951;BME280;45812;53.540;9.774;2023-03-04T03:26:06;101917.34;;;5.42;100.00
59951;BME280;45812;53.540;9.774;2023-03-04T03:28:31;101914.50;;;5.45;100.00
59951;BME280;45812;53.540;9.774;2023-03-04T03:30:57;101915.41;;;5.31;100.00
59951;BME280;45812;53.540;9.774;2023-03-04T03:33:22;101924.50;;;5.27;100.00
59951;BME280;45812;53.540;9.774;2023-03-04T03:35:47;101907.59;;;5.30;100.00
59951;BME280;45812;53.540;9.774;2023-03-04T03:38:12;101908.03;;;5.36;100.00
59951;BME280;45812;53.540;9.774;2023-03-04T03:40:38;101911.28;;;5.27;100.00
59951;BME280;45812;53.540;9.774;2023-03-04T03:43:03;101908.66;;;5.27;100.00
59951;BME280;45812;53.540;9.774;2023-03-04T03:45:28;101918.16;;;5.30;100.00
59951;BME280;45812;53.540;9.774;2023-03-04T03:47:53;101905.28;;;5.25;100.00
59951;BME280;45812;53.540;9.774;2023-03-04T03:50:19;101898.94;;;5.28;100.00
59951;BME280;45812;53.540;9.774;2023-03-04T03:52:44;101908.97;;;5.35;100.00
59951;BME280;45812;53.540;9.774;2023-03-04T03:55:09;101899.78;;;5.28;100.00
59951;BME280;45812;53.540;9.774;2023-03-04T03:57:35;101900.09;;;5.36;100.00
59951;BME280;45812;53.540;9.774;2023-03-04T04:00:00;101889.53;;;5.36;100.00
59951;BME280;45812;53.540;9.774;2023-03-04T04:02:25;101891.00;;;5.28;100.00
59951;BME280;45812;53.540;9.774;2023-03-04T04:04:51;101886.78;;;5.25;100.00
59951;BME280;45812;53.540;9.774;2023-03-04T04:07:16;101892.84;;;5.40;100.00
59951;BME280;45812;53.540;9.774;2023-03-04T04:09:41;101887.34;;;5.43;100.00
59951;BME280;45812;53.540;9.774;2023-03-04T04:12:07;101894.22;;;5.45;100.00
59951;BME280;45812;53.540;9.774;2023-03-04T04:14:32;101887.66;;;5.38;100.00
59951;BME280;45812;53.540;9.774;2023-03-04T04:16:58;101887.53;;;5.27;100.00
59951;BME280;45812;53.540;9.774;2023-03-04T04:19:23;101883.78;;;5.17;100.00
59951;BME280;45812;53.540;9.774;2023-03-04T04:21:49;101896.59;;;5.23;100.00
59951;BME280;45812;53.540;9.774;2023-03-04T04:24:14;101885.91;;;5.12;100.00
59951;BME280;45812;53.540;9.774;2023-03-04T04:26:41;101896.13;;;5.04;100.00
59951;BME280;45812;53.540;9.774;2023-03-04T04:29:07;101891.22;;;4.98;100.00
59951;BME280;45812;53.540;9.774;2023-03-04T04:31:32;101895.44;;;4.88;100.00
59951;BME280;45812;53.540;9.774;2023-03-04T04:33:58;101884.16;;;4.71;100.00
59951;BME280;45812;53.540;9.774;2023-03-04T04:36:23;101881.16;;;4.63;100.00
59951;BME280;45812;53.540;9.774;2023-03-04T04:38:48;101870.88;;;4.73;100.00
59951;BME280;45812;53.540;9.774;2023-03-04T04:41:38;101874.78;;;4.80;100.00
59951;BME280;45812;53.540;9.774;2023-03-04T04:44:04;101881.53;;;4.71;100.00
59951;BME280;45812;53.540;9.774;2023-03-04T04:46:29;101880.91;;;4.80;100.00
59951;BME280;45812;53.540;9.774;2023-03-04T04:48:54;101873.41;;;4.74;100.00
59951;BME280;45812;53.540;9.774;2023-03-04T04:51:20;101873.84;;;4.81;100.00
59951;BME280;45812;53.540;9.774;2023-03-04T04:53:46;101878.97;;;4.84;100.00
59951;BME280;45812;53.540;9.774;2023-03-04T04:56:14;101883.81;;;4.90;100.00
59951;BME280;45812;53.540;9.774;2023-03-04T04:58:40;101873.63;;;4.71;100.00
59951;BME280;45812;53.540;9.774;2023-03-04T05:01:06;101870.59;;;4.63;100.00
59951;BME280;45812;53.540;9.774;2023-03-04T05:03:33;101864.38;;;4.64;100.00
59951;BME280;45812;53.540;9.774;2023-03-04T05:05:59;101882.19;;;4.61;100.00
59951;BME280;45812;53.540;9.774;2023-03-04T05:08:25;101876.81;;;4.62;100.00
59951;BME280;45812;53.540;9.774;2023-03-04T05:10:51;101869.19;;;4.72;100.00
59951;BME280;45812;53.540;9.774;2023-03-04T05:13:16;101862.59;;;4.65;100.00
59951;BME280;45812;53.540;9.774;2023-03-04T05:15:43;101862.66;;;4.77;100.00
59951;BME280;45812;53.540;9.774;2023-03-04T05:18:08;101872.16;;;4.80;100.00
59951;BME280;45812;53.540;9.774;2023-03-04T05:20:34;101869.19;;;4.72;100.00
59951;BME280;45812;53.540;9.774;2023-03-04T05:22:59;101864.47;;;4.63;100.00
59951;BME280;45812;53.540;9.774;2023-03-04T05:25:24;101870.06;;;4.58;100.00
59951;BME280;45812;53.540;9.774;2023-03-04T05:27:49;101860.91;;;4.64;100.00
59951;BME280;45812;53.540;9.774;2023-03-04T05:30:15;101876.44;;;4.68;100.00
59951;BME280;45812;53.540;9.774;2023-03-04T05:32:40;101868.34;;;4.71;100.00
59951;BME280;45812;53.540;9.774;2023-03-04T05:35:05;101875.81;;;4.92;100.00
59951;BME280;45812;53.540;9.774;2023-03-04T05:37:31;101871.56;;;4.89;100.00
59951;BME280;45812;53.540;9.774;2023-03-04T05:39:56;101870.13;;;4.98;100.00
59951;BME280;45812;53.540;9.774;2023-03-04T05:42:21;101875.75;;;5.06;100.00
59951;BME280;45812;53.540;9.774;2023-03-04T05:44:46;101871.97;;;5.10;100.00
59951;BME280;45812;53.540;9.774;2023-03-04T05:47:12;101879.25;;;5.19;100.00
59951;BME280;45812;53.540;9.774;2023-03-04T05:49:37;101882.56;;;5.23;100.00
59951;BME280;45812;53.540;9.774;2023-03-04T05:52:02;101886.44;;;5.17;100.00
59951;BME280;45812;53.540;9.774;2023-03-04T05:54:28;101885.94;;;5.25;100.00
59951;BME280;45812;53.540;9.774;2023-03-04T05:56:53;101877.81;;;5.28;100.00
59951;BME280;45812;53.540;9.774;2023-03-04T05:59:18;101872.28;;;5.18;100.00
59951;BME280;45812;53.540;9.774;2023-03-04T06:01:45;101876.34;;;5.24;100.00
59951;BME280;45812;53.540;9.774;2023-03-04T06:04:11;101880.56;;;5.26;100.00
59951;BME280;45812;53.540;9.774;2023-03-04T06:06:36;101876.63;;;5.19;100.00
59951;BME280;45812;53.540;9.774;2023-03-04T06:09:02;101883.31;;;5.25;100.00
59951;BME280;45812;53.540;9.774;2023-03-04T06:11:27;101888.59;;;5.25;100.00
59951;BME280;45812;53.540;9.774;2023-03-04T06:13:52;101882.47;;;5.37;100.00
59951;BME280;45812;53.540;9.774;2023-03-04T06:16:18;101879.09;;;5.22;100.00
59951;BME280;45812;53.540;9.774;2023-03-04T06:18:43;101883.41;;;5.23;100.00
59951;BME280;45812;53.540;9.774;2023-03-04T06:21:08;101895.50;;;5.13;100.00
59951;BME280;45812;53.540;9.774;2023-03-04T06:23:34;101884.41;;;5.08;100.00
59951;BME280;45812;53.540;9.774;2023-03-04T06:25:59;101878.09;;;5.10;99.06
59951;BME280;45812;53.540;9.774;2023-03-04T06:28:26;101896.66;;;5.09;95.73
59951;BME280;45812;53.540;9.774;2023-03-04T06:30:53;101893.59;;;5.15;93.61
59951;BME280;45812;53.540;9.774;2023-03-04T06:33:18;101888.94;;;5.06;90.96
59951;BME280;45812;53.540;9.774;2023-03-04T06:35:43;101899.50;;;5.06;90.93
59951;BME280;45812;53.540;9.774;2023-03-04T06:38:09;101883.88;;;5.03;90.03
59951;BME280;45812;53.540;9.774;2023-03-04T06:40:34;101895.91;;;5.07;90.01
59951;BME280;45812;53.540;9.774;2023-03-04T06:42:59;101891.91;;;5.14;89.75
59951;BME280;45812;53.540;9.774;2023-03-04T06:45:25;101898.75;;;5.04;89.84
59951;BME280;45812;53.540;9.774;2023-03-04T06:47:50;101902.41;;;5.01;90.04
59951;BME280;45812;53.540;9.774;2023-03-04T06:50:15;101904.69;;;5.07;90.93
59951;BME280;45812;53.540;9.774;2023-03-04T06:52:41;101901.31;;;5.18;91.07
59951;BME280;45812;53.540;9.774;2023-03-04T06:55:07;101907.44;;;5.18;91.10
59951;BME280;45812;53.540;9.774;2023-03-04T06:57:32;101904.63;;;5.22;90.11
59951;BME280;45812;53.540;9.774;2023-03-04T06:59:58;101910.75;;;5.22;90.22
59951;BME280;45812;53.540;9.774;2023-03-04T07:02:23;101917.16;;;5.18;91.33
59951;BME280;45812;53.540;9.774;2023-03-04T07:04:48;101914.72;;;5.15;91.72
59951;BME280;45812;53.540;9.774;2023-03-04T07:07:13;101917.25;;;5.16;91.17
59951;BME280;45812;53.540;9.774;2023-03-04T07:09:39;101914.88;;;5.26;91.38
59951;BME280;45812;53.540;9.774;2023-03-04T07:12:04;101911.59;;;5.23;91.58
59951;BME280;45812;53.540;9.774;2023-03-04T07:14:29;101918.56;;;5.24;92.14
59951;BME280;45812;53.540;9.774;2023-03-04T07:16:55;101917.47;;;5.40;91.15
59951;BME280;45812;53.540;9.774;2023-03-04T07:19:20;101919.56;;;5.48;90.77
59951;BME280;45812;53.540;9.774;2023-03-04T07:21:46;101921.78;;;5.41;90.10
59951;BME280;45812;53.540;9.774;2023-03-04T07:24:11;101927.22;;;5.26;88.05
59951;BME280;45812;53.540;9.774;2023-03-04T07:26:36;101921.50;;;5.19;87.15
59951;BME280;45812;53.540;9.774;2023-03-04T07:29:03;101930.19;;;5.34;86.50
59951;BME280;45812;53.540;9.774;2023-03-04T07:31:30;101927.44;;;5.35;85.42
59951;BME280;45812;53.540;9.774;2023-03-04T07:33:58;101922.25;;;5.21;83.43
59951;BME280;45812;53.540;9.774;2023-03-04T07:36:24;101926.63;;;5.08;84.08
59951;BME280;45812;53.540;9.774;2023-03-04T07:38:50;101916.03;;;4.95;84.02
59951;BME280;45812;53.540;9.774;2023-03-04T07:41:17;101923.94;;;4.95;84.60
59951;BME280;45812;53.540;9.774;2023-03-04T07:43:43;101934.38;;;4.97;86.06
59951;BME280;45812;53.540;9.774;2023-03-04T07:46:08;101929.59;;;5.16;86.45
59951;BME280;45812;53.540;9.774;2023-03-04T07:48:34;101933.59;;;5.36;85.43
59951;BME280;45812;53.540;9.774;2023-03-04T07:51:07;101934.31;;;5.38;83.42
59951;BME280;45812;53.540;9.774;2023-03-04T07:53:34;101928.50;;;5.33;83.32
59951;BME280;45812;53.540;9.774;2023-03-04T07:55:59;101935.00;;;5.41;83.97
59951;BME280;45812;53.540;9.774;2023-03-04T07:58:25;101936.78;;;5.41;83.78
59951;BME280;45812;53.540;9.774;2023-03-04T08:00:50;101941.59;;;5.61;83.32
59951;BME280;45812;53.540;9.774;2023-03-04T08:03:15;101934.91;;;5.56;83.28
59951;BME280;45812;53.540;9.774;2023-03-04T08:05:41;101933.75;;;5.60;83.54
59951;BME280;45812;53.540;9.774;2023-03-04T08:08:06;101937.53;;;5.56;83.37
59951;BME280;45812;53.540;9.774;2023-03-04T08:10:31;101942.09;;;5.54;84.69
59951;BME280;45812;53.540;9.774;2023-03-04T08:12:57;101943.38;;;5.61;85.52
59951;BME280;45812;53.540;9.774;2023-03-04T08:15:22;101943.50;;;5.59;84.18
59951;BME280;45812;53.540;9.774;2023-03-04T08:17:47;101941.22;;;5.53;83.99
59951;BME280;45812;53.540;9.774;2023-03-04T08:20:12;101943.75;;;5.42;83.53
59951;BME280;45812;53.540;9.774;2023-03-04T08:22:38;101947.47;;;5.52;82.78
59951;BME280;45812;53.540;9.774;2023-03-04T08:25:03;101952.09;;;5.48;82.07
59951;BME280;45812;53.540;9.774;2023-03-04T08:27:29;101945.84;;;5.37;83.20
59951;BME280;45812;53.540;9.774;2023-03-04T08:29:54;101953.59;;;5.53;83.82
59951;BME280;45812;53.540;9.774;2023-03-04T08:32:19;101958.66;;;5.56;83.74
59951;BME280;45812;53.540;9.774;2023-03-04T08:34:45;101951.38;;;5.46;84.26
59951;BME280;45812;53.540;9.774;2023-03-04T08:37:11;101959.72;;;5.40;83.35
59951;BME280;45812;53.540;9.774;2023-03-04T08:39:36;101955.75;;;5.33;84.55
59951;BME280;45812;53.540;9.774;2023-03-04T08:42:01;101959.97;;;5.36;84.28
59951;BME280;45812;53.540;9.774;2023-03-04T08:44:27;101959.56;;;5.29;81.45
59951;BME280;45812;53.540;9.774;2023-03-04T08:46:52;101949.09;;;5.28;80.48
59951;BME280;45812;53.540;9.774;2023-03-04T08:49:17;101957.44;;;5.34;79.44
59951;BME280;45812;53.540;9.774;2023-03-04T08:51:43;101952.63;;;5.41;77.89
59951;BME280;45812;53.540;9.774;2023-03-04T08:54:09;101958.13;;;5.51;77.31
59951;BME280;45812;53.540;9.774;2023-03-04T08:56:34;101963.53;;;5.49;77.11
59951;BME280;45812;53.540;9.774;2023-03-04T08:59:00;101967.84;;;5.50;76.28
59951;BME280;45812;53.540;9.774;2023-03-04T09:01:25;101959.34;;;5.59;75.82
59951;BME280;45812;53.540;9.774;2023-03-04T09:03:50;101961.03;;;5.73;75.97
59951;BME280;45812;53.540;9.774;2023-03-04T09:06:16;101963.47;;;5.76;72.85
59951;BME280;45812;53.540;9.774;2023-03-04T09:08:42;101957.31;;;5.63;72.48
59951;BME280;45812;53.540;9.774;2023-03-04T09:11:08;101944.50;;;5.57;73.19
59951;BME280;45812;53.540;9.774;2023-03-04T09:13:33;101952.00;;;5.50;74.22
59951;BME280;45812;53.540;9.774;2023-03-04T09:15:59;101948.09;;;5.56;73.72
59951;BME280;45812;53.540;9.774;2023-03-04T09:18:25;101955.13;;;5.69;75.88
59951;BME280;45812;53.540;9.774;2023-03-04T09:20:51;101946.69;;;5.77;75.03
59951;BME280;45812;53.540;9.774;2023-03-04T09:23:17;101957.16;;;5.78;75.20
59951;BME280;45812;53.540;9.774;2023-03-04T09:25:44;101954.53;;;5.91;75.08
59951;BME280;45812;53.540;9.774;2023-03-04T09:28:11;101950.00;;;5.93;72.07
59951;BME280;45812;53.540;9.774;2023-03-04T09:30:37;101949.56;;;6.12;71.26
59951;BME280;45812;53.540;9.774;2023-03-04T09:33:02;101946.75;;;6.15;69.76
59951;BME280;45812;53.540;9.774;2023-03-04T09:35:28;101948.31;;;6.30;70.92
59951;BME280;45812;53.540;9.774;2023-03-04T09:37:57;101947.66;;;6.40;70.22
59951;BME280;45812;53.540;9.774;2023-03-04T09:40:26;101944.91;;;6.41;70.95
59951;BME280;45812;53.540;9.774;2023-03-04T09:42:55;101947.66;;;6.27;71.65
59951;BME280;45812;53.540;9.774;2023-03-04T09:45:26;101954.25;;;6.34;72.54
59951;BME280;45812;53.540;9.774;2023-03-04T09:47:54;101956.13;;;6.45;72.85
59951;BME280;45812;53.540;9.774;2023-03-04T09:50:20;101952.13;;;6.26;73.79
59951;BME280;45812;53.540;9.774;2023-03-04T09:53:18;101941.13;;;6.20;72.71
59951;BME280;45812;53.540;9.774;2023-03-04T09:55:49;101952.56;;;6.33;71.84
59951;BME280;45812;53.540;9.774;2023-03-04T09:58:37;101949.25;;;6.55;71.16
59951;BME280;45812;53.540;9.774;2023-03-04T10:01:19;101952.97;;;6.52;71.89
59951;BME280;45812;53.540;9.774;2023-03-04T10:03:53;101949.66;;;6.49;73.80
59951;BME280;45812;53.540;9.774;2023-03-04T10:06:21;101949.47;;;6.39;73.08
59951;BME280;45812;53.540;9.774;2023-03-04T10:08:55;101947.28;;;6.33;74.08
59951;BME280;45812;53.540;9.774;2023-03-04T10:11:31;101954.69;;;6.15;75.67
59951;BME280;45812;53.540;9.774;2023-03-04T10:14:16;101954.22;;;6.08;75.75
59951;BME280;45812;53.540;9.774;2023-03-04T10:16:59;101946.63;;;6.17;76.87
59951;BME280;45812;53.540;9.774;2023-03-04T10:22:00;101957.63;;;6.23;76.81
59951;BME280;45812;53.540;9.774;2023-03-04T10:24:28;101960.16;;;5.99;78.50
59951;BME280;45812;53.540;9.774;2023-03-04T10:26:59;101961.22;;;5.97;79.79
59951;BME280;45812;53.540;9.774;2023-03-04T10:29:28;101960.00;;;5.88;80.61
59951;BME280;45812;53.540;9.774;2023-03-04T10:31:54;101944.53;;;5.96;77.60
59951;BME280;45812;53.540;9.774;2023-03-04T10:34:20;101946.19;;;6.23;74.64
59951;BME280;45812;53.540;9.774;2023-03-04T10:36:54;101955.50;;;6.41;70.69
59951;BME280;45812;53.540;9.774;2023-03-04T10:39:29;101958.44;;;6.62;68.25
59951;BME280;45812;53.540;9.774;2023-03-04T10:42:21;101954.94;;;6.98;63.23
59951;BME280;45812;53.540;9.774;2023-03-04T10:44:58;101954.84;;;7.23;60.94
59951;BME280;45812;53.540;9.774;2023-03-04T10:47:28;101954.63;;;7.26;61.30
59951;BME280;45812;53.540;9.774;2023-03-04T10:50:00;101948.50;;;7.26;61.36
59951;BME280;45812;53.540;9.774;2023-03-04T10:54:56;101945.81;;;7.02;62.64
59951;BME280;45812;53.540;9.774;2023-03-04T10:57:33;101947.28;;;7.06;61.27
59951;BME280;45812;53.540;9.774;2023-03-04T11:02:47;101934.22;;;7.16;63.21
59951;BME280;45812;53.540;9.774;2023-03-04T11:05:21;101952.91;;;7.02;62.85
59951;BME280;45812;53.540;9.774;2023-03-04T11:07:59;101944.97;;;7.02;62.54
59951;BME280;45812;53.540;9.774;2023-03-04T11:10:29;101941.91;;;7.08;62.02
59951;BME280;45812;53.540;9.774;2023-03-04T11:13:11;101942.78;;;7.19;61.67
59951;BME280;45812;53.540;9.774;2023-03-04T11:16:00;101936.50;;;7.09;62.54
59951;BME280;45812;53.540;9.774;2023-03-04T11:18:41;101937.19;;;7.35;61.69
59951;BME280;45812;53.540;9.774;2023-03-04T11:21:14;101939.78;;;7.24;61.79
59951;BME280;45812;53.540;9.774;2023-03-04T11:23:50;101940.13;;;6.95;62.84
59951;BME280;45812;53.540;9.774;2023-03-04T11:26:39;101939.69;;;7.02;63.36
59951;BME280;45812;53.540;9.774;2023-03-04T11:29:13;101930.00;;;7.13;64.25
59951;BME280;45812;53.540;9.774;2023-03-04T11:34:40;101935.00;;;7.05;65.14
59951;BME280;45812;53.540;9.774;2023-03-04T11:37:12;101930.50;;;6.94;65.82
59951;BME280;45812;53.540;9.774;2023-03-04T11:42:23;101936.41;;;6.74;68.09
59951;BME280;45812;53.540;9.774;2023-03-04T11:44:50;101924.88;;;6.62;70.12
59951;BME280;45812;53.540;9.774;2023-03-04T11:50:23;101939.06;;;6.49;74.05
59951;BME280;45812;53.540;9.774;2023-03-04T11:55:54;101932.31;;;6.32;77.43
59951;BME280;45812;53.540;9.774;2023-03-04T11:58:56;101929.06;;;6.41;77.22
59951;BME280;45812;53.540;9.774;2023-03-04T12:01:53;101930.38;;;6.72;75.41
59951;BME280;45812;53.540;9.774;2023-03-04T12:04:32;101930.50;;;6.58;75.04
59951;BME280;45812;53.540;9.774;2023-03-04T12:15:00;101929.28;;;6.38;77.16
59951;BME280;45812;53.540;9.774;2023-03-04T12:17:51;101929.25;;;6.51;74.61
59951;BME280;45812;53.540;9.774;2023-03-04T12:25:42;101901.34;;;7.07;71.09
59951;BME280;45812;53.540;9.774;2023-03-04T12:31:13;101905.03;;;7.64;71.71
59951;BME280;45812;53.540;9.774;2023-03-04T12:39:39;101905.19;;;7.84;65.76
59951;BME280;45812;53.540;9.774;2023-03-04T12:48:28;101893.41;;;8.00;64.86
59951;BME280;45812;53.540;9.774;2023-03-04T12:51:12;101892.91;;;8.17;63.52
59951;BME280;45812;53.540;9.774;2023-03-04T12:56:26;101885.94;;;8.27;56.69
59951;BME280;45812;53.540;9.774;2023-03-04T12:58:53;101884.97;;;8.62;56.40
59951;BME280;45812;53.540;9.774;2023-03-04T13:01:31;101890.06;;;8.42;53.85
59951;BME280;45812;53.540;9.774;2023-03-04T13:04:06;101875.97;;;8.42;52.64
59951;BME280;45812;53.540;9.774;2023-03-04T13:06:56;101876.28;;;9.77;47.94
59951;BME280;45812;53.540;9.774;2023-03-04T13:09:33;101873.69;;;9.65;45.71
59951;BME280;45812;53.540;9.774;2023-03-04T13:12:15;101871.47;;;9.29;46.94
59951;BME280;45812;53.540;9.774;2023-03-04T13:17:47;101867.13;;;9.28;47.61
59951;BME280;45812;53.540;9.774;2023-03-04T13:25:44;101870.47;;;8.77;48.38
59951;BME280;45812;53.540;9.774;2023-03-04T13:42:02;101873.25;;;7.97;51.64
59951;BME280;45812;53.540;9.774;2023-03-04T13:46:55;101868.44;;;7.80;53.94
59951;BME280;45812;53.540;9.774;2023-03-04T13:49:21;101875.06;;;7.74;54.43
59951;BME280;45812;53.540;9.774;2023-03-04T13:51:51;101867.97;;;7.40;55.08
59951;BME280;45812;53.540;9.774;2023-03-04T13:54:32;101872.94;;;7.09;57.05
59951;BME280;45812;53.540;9.774;2023-03-04T14:02:14;101879.13;;;7.21;58.43
59951;BME280;45812;53.540;9.774;2023-03-04T14:04:46;101876.31;;;7.11;58.47
59951;BME280;45812;53.540;9.774;2023-03-04T14:07:33;101868.44;;;6.75;58.83
59951;BME280;45812;53.540;9.774;2023-03-04T14:10:04;101865.56;;;6.41;60.84
59951;BME280;45812;53.540;9.774;2023-03-04T14:12:32;101865.06;;;6.36;61.39
59951;BME280;45812;53.540;9.774;2023-03-04T14:15:04;101870.63;;;6.44;60.74
59951;BME280;45812;53.540;9.774;2023-03-04T14:17:33;101870.91;;;6.65;60.19
59951;BME280;45812;53.540;9.774;2023-03-04T14:20:01;101875.06;;;7.04;59.55
59951;BME280;45812;53.540;9.774;2023-03-04T14:22:40;101879.69;;;7.13;59.19